sensor_id;sensor_type;location;lat;lon;timestamp;P1;durP1;ratioP1;P2;durP2;ratioP2
4810;SDS011;2419;51.276;6.472;2023-07-28T00:00:29;3.73;;;2.43;;
4810;SDS011;2419;51.276;6.472;2023-07-28T00:02:57;5.53;;;2.87;;
4810;SDS011;2419;51.276;6.472;2023-07-28T00:05:26;4.40;;;2.80;;
4810;SDS011;2419;51.276;6.472;2023-07-28T00:07:54;3.33;;;2.40;;
4810;SDS011;2419;51.276;6.472;2023-07-28T00:10:22;2.77;;;2.47;;
4810;SDS011;2419;51.276;6.472;2023-07-28T00:12:50;3.30;;;2.50;;
4810;SDS011;2419;51.276;6.472;2023-07-28T00:15:19;2.83;;;2.30;;
4810;SDS011;2419;51.276;6.472;2023-07-28T00:17:47;3.40;;;2.73;;
4810;SDS011;2419;51.276;6.472;2023-07-28T00:20:15;3.50;;;2.90;;
4810;SDS011;2419;51.276;6.472;2023-07-28T00:22:45;3.60;;;2.47;;
4810;SDS011;2419;51.276;6.472;2023-07-28T00:25:13;4.67;;;3.80;;
4810;SDS011;2419;51.276;6.472;2023-07-28T00:27:41;2.90;;;2.60;;
4810;SDS011;2419;51.276;6.472;2023-07-28T00:30:11;6.07;;;3.17;;
4810;SDS011;2419;51.276;6.472;2023-07-28T00:32:40;4.60;;;2.83;;
4810;SDS011;2419;51.276;6.472;2023-07-28T00:35:08;2.60;;;2.40;;
4810;SDS011;2419;51.276;6.472;2023-07-28T00:37:37;3.87;;;2.87;;
4810;SDS011;2419;51.276;6.472;2023-07-28T00:40:06;4.80;;;2.90;;
4810;SDS011;2419;51.276;6.472;2023-07-28T00:42:34;5.83;;;3.43;;
4810;SDS011;2419;51.276;6.472;2023-07-28T00:45:03;4.87;;;2.93;;
4810;SDS011;2419;51.276;6.472;2023-07-28T00:47:32;3.57;;;3.00;;
4810;SDS011;2419;51.276;6.472;2023-07-28T00:50:01;4.80;;;3.70;;
4810;SDS011;2419;51.276;6.472;2023-07-28T00:52:29;3.57;;;2.87;;
4810;SDS011;2419;51.276;6.472;2023-07-28T00:54:57;5.90;;;3.20;;
4810;SDS011;2419;51.276;6.472;2023-07-28T00:57:26;3.50;;;3.20;;
4810;SDS011;2419;51.276;6.472;2023-07-28T00:59:54;6.70;;;3.63;;
4810;SDS011;2419;51.276;6.472;2023-07-28T01:02:22;2.97;;;2.67;;
4810;SDS011;2419;51.276;6.472;2023-07-28T01:04:50;6.20;;;3.10;;
4810;SDS011;2419;51.276;6.472;2023-07-28T01:07:22;4.90;;;3.20;;
4810;SDS011;2419;51.276;6.472;2023-07-28T01:10:00;4.60;;;3.37;;
4810;SDS011;2419;51.276;6.472;2023-07-28T01:12:33;5.80;;;3.60;;
4810;SDS011;2419;51.276;6.472;2023-07-28T01:15:01;3.57;;;2.97;;
4810;SDS011;2419;51.276;6.472;2023-07-28T01:17:29;3.30;;;3.00;;
4810;SDS011;2419;51.276;6.472;2023-07-28T01:19:57;4.43;;;3.73;;
4810;SDS011;2419;51.276;6.472;2023-07-28T01:22:37;3.90;;;3.27;;
4810;SDS011;2419;51.276;6.472;2023-07-28T01:25:17;3.33;;;3.03;;
4810;SDS011;2419;51.276;6.472;2023-07-28T01:27:51;4.20;;;2.63;;
4810;SDS011;2419;51.276;6.472;2023-07-28T01:30:20;3.03;;;2.70;;
4810;SDS011;2419;51.276;6.472;2023-07-28T01:32:53;3.63;;;3.33;;
4810;SDS011;2419;51.276;6.472;2023-07-28T01:35:22;3.27;;;2.97;;
4810;SDS011;2419;51.276;6.472;2023-07-28T01:37:50;4.47;;;3.33;;
4810;SDS011;2419;51.276;6.472;2023-07-28T01:40:18;3.33;;;3.03;;
4810;SDS011;2419;51.276;6.472;2023-07-28T01:42:47;8.30;;;2.83;;
4810;SDS011;2419;51.276;6.472;2023-07-28T01:45:16;7.27;;;3.00;;
4810;SDS011;2419;51.276;6.472;2023-07-28T01:47:45;3.33;;;3.03;;
4810;SDS011;2419;51.276;6.472;2023-07-28T01:50:13;2.90;;;2.50;;
4810;SDS011;2419;51.276;6.472;2023-07-28T01:52:41;4.03;;;2.67;;
4810;SDS011;2419;51.276;6.472;2023-07-28T01:55:10;2.53;;;2.33;;
4810;SDS011;2419;51.276;6.472;2023-07-28T01:57:38;8.83;;;3.23;;
4810;SDS011;2419;51.276;6.472;2023-07-28T02:00:07;2.73;;;2.40;;
4810;SDS011;2419;51.276;6.472;2023-07-28T02:02:40;2.70;;;2.50;;
4810;SDS011;2419;51.276;6.472;2023-07-28T02:05:08;5.90;;;2.70;;
4810;SDS011;2419;51.276;6.472;2023-07-28T02:07:36;2.77;;;2.50;;
4810;SDS011;2419;51.276;6.472;2023-07-28T02:10:04;2.63;;;2.40;;
4810;SDS011;2419;51.276;6.472;2023-07-28T02:12:33;2.67;;;2.37;;
4810;SDS011;2419;51.276;6.472;2023-07-28T02:15:01;2.20;;;2.00;;
4810;SDS011;2419;51.276;6.472;2023-07-28T02:17:29;2.40;;;2.20;;
4810;SDS011;2419;51.276;6.472;2023-07-28T02:19:58;5.30;;;2.67;;
4810;SDS011;2419;51.276;6.472;2023-07-28T02:22:27;2.63;;;2.40;;
4810;SDS011;2419;51.276;6.472;2023-07-28T02:24:55;3.80;;;2.77;;
4810;SDS011;2419;51.276;6.472;2023-07-28T02:27:26;2.33;;;2.13;;
4810;SDS011;2419;51.276;6.472;2023-07-28T02:29:54;3.13;;;2.83;;
4810;SDS011;2419;51.276;6.472;2023-07-28T02:32:22;3.00;;;2.70;;
4810;SDS011;2419;51.276;6.472;2023-07-28T02:34:51;3.13;;;2.40;;
4810;SDS011;2419;51.276;6.472;2023-07-28T02:37:20;3.63;;;2.77;;
4810;SDS011;2419;51.276;6.472;2023-07-28T02:39:48;2.87;;;2.50;;
4810;SDS011;2419;51.276;6.472;2023-07-28T02:42:16;3.50;;;2.63;;
4810;SDS011;2419;51.276;6.472;2023-07-28T02:44:45;2.73;;;2.27;;
4810;SDS011;2419;51.276;6.472;2023-07-28T02:47:13;2.50;;;2.30;;
4810;SDS011;2419;51.276;6.472;2023-07-28T02:49:42;2.70;;;2.50;;
4810;SDS011;2419;51.276;6.472;2023-07-28T02:52:10;3.40;;;2.50;;
4810;SDS011;2419;51.276;6.472;2023-07-28T02:54:40;2.93;;;2.73;;
4810;SDS011;2419;51.276;6.472;2023-07-28T02:57:08;2.40;;;2.10;;
4810;SDS011;2419;51.276;6.472;2023-07-28T02:59:40;1.77;;;1.60;;
4810;SDS011;2419;51.276;6.472;2023-07-28T03:02:09;2.27;;;2.07;;
4810;SDS011;2419;51.276;6.472;2023-07-28T03:04:37;3.83;;;2.70;;
4810;SDS011;2419;51.276;6.472;2023-07-28T03:07:27;4.53;;;2.20;;
4810;SDS011;2419;51.276;6.472;2023-07-28T03:10:02;3.23;;;2.30;;
4810;SDS011;2419;51.276;6.472;2023-07-28T03:12:33;2.07;;;1.90;;
4810;SDS011;2419;51.276;6.472;2023-07-28T03:15:02;2.30;;;2.10;;
4810;SDS011;2419;51.276;6.472;2023-07-28T03:17:33;3.70;;;2.10;;
4810;SDS011;2419;51.276;6.472;2023-07-28T03:20:01;2.13;;;1.93;;
4810;SDS011;2419;51.276;6.472;2023-07-28T03:22:29;3.30;;;2.27;;
4810;SDS011;2419;51.276;6.472;2023-07-28T03:24:57;4.53;;;2.27;;
4810;SDS011;2419;51.276;6.472;2023-07-28T03:27:27;1.70;;;1.60;;
4810;SDS011;2419;51.276;6.472;2023-07-28T03:29:55;2.23;;;2.03;;
4810;SDS011;2419;51.276;6.472;2023-07-28T03:32:23;2.77;;;1.57;;
4810;SDS011;2419;51.276;6.472;2023-07-28T03:34:51;1.87;;;1.57;;
4810;SDS011;2419;51.276;6.472;2023-07-28T03:37:19;2.77;;;1.73;;
4810;SDS011;2419;51.276;6.472;2023-07-28T03:39:47;1.87;;;1.60;;
4810;SDS011;2419;51.276;6.472;2023-07-28T03:42:17;1.63;;;1.53;;
4810;SDS011;2419;51.276;6.472;2023-07-28T03:44:46;1.70;;;1.60;;
4810;SDS011;2419;51.276;6.472;2023-07-28T03:47:14;2.07;;;1.87;;
4810;SDS011;2419;51.276;6.472;2023-07-28T03:49:42;1.87;;;1.77;;
4810;SDS011;2419;51.276;6.472;2023-07-28T03:52:10;2.00;;;1.70;;
4810;SDS011;2419;51.276;6.472;2023-07-28T03:54:38;2.37;;;1.80;;
4810;SDS011;2419;51.276;6.472;2023-07-28T03:57:06;4.37;;;2.57;;
4810;SDS011;2419;51.276;6.472;2023-07-28T03:59:35;1.50;;;1.40;;
4810;SDS011;2419;51.276;6.472;2023-07-28T04:02:05;2.00;;;1.80;;
4810;SDS011;2419;51.276;6.472;2023-07-28T04:04:34;3.53;;;2.10;;
4810;SDS011;2419;51.276;6.472;2023-07-28T04:07:03;2.00;;;1.80;;
4810;SDS011;2419;51.276;6.472;2023-07-28T04:09:31;4.00;;;1.77;;
4810;SDS011;2419;51.276;6.472;2023-07-28T04:11:59;2.40;;;2.20;;
4810;SDS011;2419;51.276;6.472;2023-07-28T04:14:27;1.80;;;1.70;;
4810;SDS011;2419;51.276;6.472;2023-07-28T04:16:55;2.00;;;1.87;;
4810;SDS011;2419;51.276;6.472;2023-07-28T04:19:25;1.40;;;1.30;;
4810;SDS011;2419;51.276;6.472;2023-07-28T04:21:56;2.70;;;1.70;;
4810;SDS011;2419;51.276;6.472;2023-07-28T04:24:25;3.10;;;1.93;;
4810;SDS011;2419;51.276;6.472;2023-07-28T04:26:53;1.90;;;1.80;;
4810;SDS011;2419;51.276;6.472;2023-07-28T04:29:22;2.57;;;2.03;;
4810;SDS011;2419;51.276;6.472;2023-07-28T04:31:50;2.93;;;2.10;;
4810;SDS011;2419;51.276;6.472;2023-07-28T04:34:27;2.07;;;1.87;;
4810;SDS011;2419;51.276;6.472;2023-07-28T04:37:12;2.77;;;2.30;;
4810;SDS011;2419;51.276;6.472;2023-07-28T04:39:58;3.77;;;2.67;;
4810;SDS011;2419;51.276;6.472;2023-07-28T04:42:32;7.00;;;3.40;;
4810;SDS011;2419;51.276;6.472;2023-07-28T04:45:00;3.47;;;3.17;;
4810;SDS011;2419;51.276;6.472;2023-07-28T04:47:31;3.70;;;3.00;;
4810;SDS011;2419;51.276;6.472;2023-07-28T04:50:01;4.60;;;2.57;;
4810;SDS011;2419;51.276;6.472;2023-07-28T04:52:49;3.30;;;2.80;;
4810;SDS011;2419;51.276;6.472;2023-07-28T04:55:37;3.53;;;2.80;;
4810;SDS011;2419;51.276;6.472;2023-07-28T04:58:05;12.00;;;3.23;;
4810;SDS011;2419;51.276;6.472;2023-07-28T05:00:44;3.77;;;2.70;;
4810;SDS011;2419;51.276;6.472;2023-07-28T05:03:12;3.80;;;3.30;;
4810;SDS011;2419;51.276;6.472;2023-07-28T05:05:49;6.57;;;3.80;;
4810;SDS011;2419;51.276;6.472;2023-07-28T05:08:17;5.60;;;3.47;;
4810;SDS011;2419;51.276;6.472;2023-07-28T05:10:45;9.63;;;4.47;;
4810;SDS011;2419;51.276;6.472;2023-07-28T05:13:13;4.03;;;3.50;;
4810;SDS011;2419;51.276;6.472;2023-07-28T05:15:50;5.00;;;3.37;;
4810;SDS011;2419;51.276;6.472;2023-07-28T05:18:38;6.63;;;4.57;;
4810;SDS011;2419;51.276;6.472;2023-07-28T05:21:36;6.40;;;4.10;;
4810;SDS011;2419;51.276;6.472;2023-07-28T05:24:05;6.63;;;4.50;;
4810;SDS011;2419;51.276;6.472;2023-07-28T05:26:35;7.53;;;4.33;;
4810;SDS011;2419;51.276;6.472;2023-07-28T05:29:03;11.53;;;5.67;;
4810;SDS011;2419;51.276;6.472;2023-07-28T05:31:31;6.13;;;4.30;;
4810;SDS011;2419;51.276;6.472;2023-07-28T05:34:02;5.60;;;4.10;;
4810;SDS011;2419;51.276;6.472;2023-07-28T05:36:31;9.10;;;4.50;;
4810;SDS011;2419;51.276;6.472;2023-07-28T05:39:02;6.80;;;4.47;;
4810;SDS011;2419;51.276;6.472;2023-07-28T05:41:37;11.10;;;5.17;;
4810;SDS011;2419;51.276;6.472;2023-07-28T05:44:09;9.53;;;4.60;;
4810;SDS011;2419;51.276;6.472;2023-07-28T05:46:37;11.50;;;4.90;;
4810;SDS011;2419;51.276;6.472;2023-07-28T05:49:05;9.57;;;5.43;;
4810;SDS011;2419;51.276;6.472;2023-07-28T05:51:34;10.13;;;5.10;;
4810;SDS011;2419;51.276;6.472;2023-07-28T05:54:04;12.50;;;5.83;;
4810;SDS011;2419;51.276;6.472;2023-07-28T05:56:32;11.17;;;5.00;;
4810;SDS011;2419;51.276;6.472;2023-07-28T05:59:00;9.67;;;4.87;;
4810;SDS011;2419;51.276;6.472;2023-07-28T06:01:28;8.50;;;5.30;;
4810;SDS011;2419;51.276;6.472;2023-07-28T06:04:22;13.50;;;5.23;;
4810;SDS011;2419;51.276;6.472;2023-07-28T06:06:54;9.00;;;4.97;;
4810;SDS011;2419;51.276;6.472;2023-07-28T06:09:24;10.60;;;5.27;;
4810;SDS011;2419;51.276;6.472;2023-07-28T06:11:52;11.20;;;5.60;;
4810;SDS011;2419;51.276;6.472;2023-07-28T06:14:23;10.63;;;4.50;;
4810;SDS011;2419;51.276;6.472;2023-07-28T06:16:52;10.93;;;5.00;;
4810;SDS011;2419;51.276;6.472;2023-07-28T06:19:21;7.57;;;3.60;;
4810;SDS011;2419;51.276;6.472;2023-07-28T06:21:51;8.93;;;4.20;;
4810;SDS011;2419;51.276;6.472;2023-07-28T06:24:21;10.00;;;5.17;;
4810;SDS011;2419;51.276;6.472;2023-07-28T06:26:50;7.37;;;4.97;;
4810;SDS011;2419;51.276;6.472;2023-07-28T06:29:18;7.27;;;4.63;;
4810;SDS011;2419;51.276;6.472;2023-07-28T06:31:46;9.00;;;5.77;;
4810;SDS011;2419;51.276;6.472;2023-07-28T06:34:14;9.40;;;4.50;;
4810;SDS011;2419;51.276;6.472;2023-07-28T06:36:43;9.73;;;4.80;;
4810;SDS011;2419;51.276;6.472;2023-07-28T06:39:11;8.70;;;5.00;;
4810;SDS011;2419;51.276;6.472;2023-07-28T06:41:40;8.53;;;5.50;;
4810;SDS011;2419;51.276;6.472;2023-07-28T06:44:12;9.87;;;4.90;;
4810;SDS011;2419;51.276;6.472;2023-07-28T06:46:40;10.23;;;5.30;;
4810;SDS011;2419;51.276;6.472;2023-07-28T06:49:11;10.80;;;5.50;;
4810;SDS011;2419;51.276;6.472;2023-07-28T06:51:39;6.33;;;4.50;;
4810;SDS011;2419;51.276;6.472;2023-07-28T06:54:10;7.70;;;4.47;;
4810;SDS011;2419;51.276;6.472;2023-07-28T06:56:39;8.30;;;5.00;;
4810;SDS011;2419;51.276;6.472;2023-07-28T06:59:07;10.00;;;5.00;;
4810;SDS011;2419;51.276;6.472;2023-07-28T07:01:45;8.80;;;5.10;;
4810;SDS011;2419;51.276;6.472;2023-07-28T07:04:13;6.20;;;4.37;;
4810;SDS011;2419;51.276;6.472;2023-07-28T07:06:41;13.17;;;4.20;;
4810;SDS011;2419;51.276;6.472;2023-07-28T07:09:09;6.90;;;3.70;;
4810;SDS011;2419;51.276;6.472;2023-07-28T07:11:40;5.50;;;3.93;;
4810;SDS011;2419;51.276;6.472;2023-07-28T07:14:08;6.27;;;3.73;;
4810;SDS011;2419;51.276;6.472;2023-07-28T07:16:37;5.50;;;3.73;;
4810;SDS011;2419;51.276;6.472;2023-07-28T07:19:06;5.13;;;3.50;;
4810;SDS011;2419;51.276;6.472;2023-07-28T07:21:35;3.70;;;3.03;;
4810;SDS011;2419;51.276;6.472;2023-07-28T07:24:05;4.00;;;3.20;;
4810;SDS011;2419;51.276;6.472;2023-07-28T07:26:33;4.33;;;2.93;;
4810;SDS011;2419;51.276;6.472;2023-07-28T07:29:01;3.00;;;2.47;;
4810;SDS011;2419;51.276;6.472;2023-07-28T07:31:29;3.57;;;2.30;;
4810;SDS011;2419;51.276;6.472;2023-07-28T07:33:58;3.90;;;1.90;;
4810;SDS011;2419;51.276;6.472;2023-07-28T07:36:27;2.03;;;1.80;;
4810;SDS011;2419;51.276;6.472;2023-07-28T07:38:55;6.07;;;2.03;;
4810;SDS011;2419;51.276;6.472;2023-07-28T07:41:23;3.80;;;2.03;;
4810;SDS011;2419;51.276;6.472;2023-07-28T07:43:52;2.80;;;2.47;;
4810;SDS011;2419;51.276;6.472;2023-07-28T07:46:21;3.73;;;3.27;;
4810;SDS011;2419;51.276;6.472;2023-07-28T07:48:50;2.47;;;1.70;;
4810;SDS011;2419;51.276;6.472;2023-07-28T07:51:19;5.47;;;2.67;;
4810;SDS011;2419;51.276;6.472;2023-07-28T07:53:48;2.93;;;2.50;;
4810;SDS011;2419;51.276;6.472;2023-07-28T07:56:16;3.27;;;2.13;;
4810;SDS011;2419;51.276;6.472;2023-07-28T07:58:45;2.93;;;2.63;;
4810;SDS011;2419;51.276;6.472;2023-07-28T08:01:13;3.73;;;2.67;;
4810;SDS011;2419;51.276;6.472;2023-07-28T08:03:41;3.63;;;3.03;;
4810;SDS011;2419;51.276;6.472;2023-07-28T08:06:09;3.73;;;2.70;;
4810;SDS011;2419;51.276;6.472;2023-07-28T08:08:38;4.67;;;3.27;;
4810;SDS011;2419;51.276;6.472;2023-07-28T08:11:10;9.00;;;3.30;;
4810;SDS011;2419;51.276;6.472;2023-07-28T08:13:39;7.40;;;3.30;;
4810;SDS011;2419;51.276;6.472;2023-07-28T08:16:07;3.70;;;2.83;;
4810;SDS011;2419;51.276;6.472;2023-07-28T08:18:35;5.80;;;4.23;;
4810;SDS011;2419;51.276;6.472;2023-07-28T08:21:03;4.97;;;3.40;;
4810;SDS011;2419;51.276;6.472;2023-07-28T08:23:31;4.80;;;3.67;;
4810;SDS011;2419;51.276;6.472;2023-07-28T08:25:59;6.07;;;3.70;;
4810;SDS011;2419;51.276;6.472;2023-07-28T08:28:29;6.90;;;3.90;;
4810;SDS011;2419;51.276;6.472;2023-07-28T08:30:59;4.03;;;3.60;;
4810;SDS011;2419;51.276;6.472;2023-07-28T08:33:27;6.43;;;4.50;;
4810;SDS011;2419;51.276;6.472;2023-07-28T08:35:55;5.50;;;4.30;;
4810;SDS011;2419;51.276;6.472;2023-07-28T08:38:29;7.77;;;5.00;;
4810;SDS011;2419;51.276;6.472;2023-07-28T08:40:57;7.00;;;4.87;;
4810;SDS011;2419;51.276;6.472;2023-07-28T08:43:25;4.90;;;4.40;;
4810;SDS011;2419;51.276;6.472;2023-07-28T08:45:55;8.57;;;4.80;;
4810;SDS011;2419;51.276;6.472;2023-07-28T08:48:23;4.90;;;4.10;;
4810;SDS011;2419;51.276;6.472;2023-07-28T08:50:52;9.57;;;4.97;;
4810;SDS011;2419;51.276;6.472;2023-07-28T08:53:20;4.50;;;3.80;;
4810;SDS011;2419;51.276;6.472;2023-07-28T08:55:48;4.23;;;3.83;;
4810;SDS011;2419;51.276;6.472;2023-07-28T08:58:17;8.63;;;4.27;;
4810;SDS011;2419;51.276;6.472;2023-07-28T09:00:46;5.47;;;3.40;;
4810;SDS011;2419;51.276;6.472;2023-07-28T09:03:18;6.17;;;3.33;;
4810;SDS011;2419;51.276;6.472;2023-07-28T09:05:47;7.73;;;3.70;;
4810;SDS011;2419;51.276;6.472;2023-07-28T09:08:15;6.10;;;3.47;;
4810;SDS011;2419;51.276;6.472;2023-07-28T09:10:44;4.60;;;3.00;;
4810;SDS011;2419;51.276;6.472;2023-07-28T09:13:13;4.50;;;3.13;;
4810;SDS011;2419;51.276;6.472;2023-07-28T09:15:43;4.77;;;2.90;;
4810;SDS011;2419;51.276;6.472;2023-07-28T09:18:12;3.43;;;3.13;;
4810;SDS011;2419;51.276;6.472;2023-07-28T09:20:44;4.53;;;2.87;;
4810;SDS011;2419;51.276;6.472;2023-07-28T09:23:12;2.60;;;2.40;;
4810;SDS011;2419;51.276;6.472;2023-07-28T09:25:41;4.13;;;2.70;;
4810;SDS011;2419;51.276;6.472;2023-07-28T09:28:09;2.30;;;2.10;;
4810;SDS011;2419;51.276;6.472;2023-07-28T09:30:45;4.53;;;2.80;;
4810;SDS011;2419;51.276;6.472;2023-07-28T09:33:28;3.17;;;2.70;;
4810;SDS011;2419;51.276;6.472;2023-07-28T09:36:05;3.13;;;2.40;;
4810;SDS011;2419;51.276;6.472;2023-07-28T09:38:35;5.50;;;3.77;;
4810;SDS011;2419;51.276;6.472;2023-07-28T09:41:05;2.27;;;2.07;;
4810;SDS011;2419;51.276;6.472;2023-07-28T09:43:35;2.33;;;1.73;;
4810;SDS011;2419;51.276;6.472;2023-07-28T09:46:04;2.20;;;2.00;;
4810;SDS011;2419;51.276;6.472;2023-07-28T09:48:33;3.80;;;2.30;;
4810;SDS011;2419;51.276;6.472;2023-07-28T09:51:05;2.27;;;2.07;;
4810;SDS011;2419;51.276;6.472;2023-07-28T09:53:38;2.30;;;2.10;;
4810;SDS011;2419;51.276;6.472;2023-07-28T09:56:16;2.40;;;1.60;;
4810;SDS011;2419;51.276;6.472;2023-07-28T09:58:49;2.13;;;1.90;;
4810;SDS011;2419;51.276;6.472;2023-07-28T10:01:18;5.43;;;2.23;;
4810;SDS011;2419;51.276;6.472;2023-07-28T10:03:48;2.60;;;1.80;;
4810;SDS011;2419;51.276;6.472;2023-07-28T10:06:18;1.63;;;1.53;;
4810;SDS011;2419;51.276;6.472;2023-07-28T10:08:48;1.53;;;1.43;;
4810;SDS011;2419;51.276;6.472;2023-07-28T10:11:17;1.70;;;1.60;;
4810;SDS011;2419;51.276;6.472;2023-07-28T10:13:47;1.77;;;1.67;;
4810;SDS011;2419;51.276;6.472;2023-07-28T10:16:15;1.57;;;1.40;;
4810;SDS011;2419;51.276;6.472;2023-07-28T10:18:51;2.63;;;1.70;;
4810;SDS011;2419;51.276;6.472;2023-07-28T10:21:21;1.70;;;1.57;;
4810;SDS011;2419;51.276;6.472;2023-07-28T10:23:55;1.40;;;1.30;;
4810;SDS011;2419;51.276;6.472;2023-07-28T10:26:31;1.40;;;1.30;;
4810;SDS011;2419;51.276;6.472;2023-07-28T10:29:07;1.60;;;1.50;;
4810;SDS011;2419;51.276;6.472;2023-07-28T10:31:49;1.30;;;1.20;;
4810;SDS011;2419;51.276;6.472;2023-07-28T10:34:19;1.37;;;1.27;;
4810;SDS011;2419;51.276;6.472;2023-07-28T10:36:57;1.13;;;1.03;;
4810;SDS011;2419;51.276;6.472;2023-07-28T10:39:26;1.77;;;1.30;;
4810;SDS011;2419;51.276;6.472;2023-07-28T10:42:00;1.70;;;1.10;;
4810;SDS011;2419;51.276;6.472;2023-07-28T10:44:29;1.40;;;1.30;;
4810;SDS011;2419;51.276;6.472;2023-07-28T10:46:58;1.20;;;1.10;;
4810;SDS011;2419;51.276;6.472;2023-07-28T10:49:26;1.30;;;1.20;;
4810;SDS011;2419;51.276;6.472;2023-07-28T10:51:56;1.80;;;1.30;;
4810;SDS011;2419;51.276;6.472;2023-07-28T10:54:24;3.00;;;1.30;;
4810;SDS011;2419;51.276;6.472;2023-07-28T10:56:53;2.30;;;1.20;;
4810;SDS011;2419;51.276;6.472;2023-07-28T10:59:21;2.00;;;1.33;;
4810;SDS011;2419;51.276;6.472;2023-07-28T11:01:49;1.00;;;0.80;;
4810;SDS011;2419;51.276;6.472;2023-07-28T11:04:19;0.90;;;0.90;;
4810;SDS011;2419;51.276;6.472;2023-07-28T11:06:51;0.80;;;0.80;;
4810;SDS011;2419;51.276;6.472;2023-07-28T11:09:22;3.67;;;1.10;;
4810;SDS011;2419;51.276;6.472;2023-07-28T11:11:51;6.20;;;1.10;;
4810;SDS011;2419;51.276;6.472;2023-07-28T11:14:19;3.87;;;1.20;;
4810;SDS011;2419;51.276;6.472;2023-07-28T11:16:49;1.30;;;1.20;;
4810;SDS011;2419;51.276;6.472;2023-07-28T11:19:18;0.93;;;0.90;;
4810;SDS011;2419;51.276;6.472;2023-07-28T11:21:51;0.93;;;0.93;;
4810;SDS011;2419;51.276;6.472;2023-07-28T11:24:19;1.20;;;1.10;;
4810;SDS011;2419;51.276;6.472;2023-07-28T11:26:50;1.60;;;1.10;;
4810;SDS011;2419;51.276;6.472;2023-07-28T11:29:18;1.50;;;1.40;;
4810;SDS011;2419;51.276;6.472;2023-07-28T11:31:48;1.00;;;1.00;;
4810;SDS011;2419;51.276;6.472;2023-07-28T11:34:17;0.90;;;0.87;;
4810;SDS011;2419;51.276;6.472;2023-07-28T11:36:45;1.00;;;1.00;;
4810;SDS011;2419;51.276;6.472;2023-07-28T11:39:13;1.33;;;1.07;;
4810;SDS011;2419;51.276;6.472;2023-07-28T11:41:44;1.20;;;1.10;;
4810;SDS011;2419;51.276;6.472;2023-07-28T11:44:14;2.27;;;1.13;;
4810;SDS011;2419;51.276;6.472;2023-07-28T11:46:43;1.03;;;0.93;;
4810;SDS011;2419;51.276;6.472;2023-07-28T11:49:13;1.20;;;1.10;;
4810;SDS011;2419;51.276;6.472;2023-07-28T11:51:43;0.90;;;0.90;;
4810;SDS011;2419;51.276;6.472;2023-07-28T11:54:12;1.10;;;1.00;;
4810;SDS011;2419;51.276;6.472;2023-07-28T11:56:42;1.20;;;1.10;;
4810;SDS011;2419;51.276;6.472;2023-07-28T11:59:14;1.00;;;0.90;;
4810;SDS011;2419;51.276;6.472;2023-07-28T12:01:56;1.07;;;1.07;;
4810;SDS011;2419;51.276;6.472;2023-07-28T12:04:28;2.03;;;1.20;;
4810;SDS011;2419;51.276;6.472;2023-07-28T12:07:00;0.97;;;0.97;;
4810;SDS011;2419;51.276;6.472;2023-07-28T12:09:50;1.63;;;1.10;;
4810;SDS011;2419;51.276;6.472;2023-07-28T12:12:23;1.40;;;1.30;;
4810;SDS011;2419;51.276;6.472;2023-07-28T12:14:53;1.20;;;1.10;;
4810;SDS011;2419;51.276;6.472;2023-07-28T12:17:24;1.00;;;1.00;;
4810;SDS011;2419;51.276;6.472;2023-07-28T12:20:13;1.10;;;1.00;;
4810;SDS011;2419;51.276;6.472;2023-07-28T12:22:43;1.33;;;1.23;;
4810;SDS011;2419;51.276;6.472;2023-07-28T12:25:12;1.20;;;1.10;;
4810;SDS011;2419;51.276;6.472;2023-07-28T12:27:42;3.53;;;1.40;;
4810;SDS011;2419;51.276;6.472;2023-07-28T12:30:11;1.17;;;1.07;;
4810;SDS011;2419;51.276;6.472;2023-07-28T12:32:42;1.00;;;0.90;;
4810;SDS011;2419;51.276;6.472;2023-07-28T12:35:13;1.23;;;1.00;;
4810;SDS011;2419;51.276;6.472;2023-07-28T12:37:42;1.20;;;1.10;;
4810;SDS011;2419;51.276;6.472;2023-07-28T12:40:13;1.00;;;1.00;;
4810;SDS011;2419;51.276;6.472;2023-07-28T12:42:46;1.00;;;0.90;;
4810;SDS011;2419;51.276;6.472;2023-07-28T12:45:17;1.17;;;0.90;;
4810;SDS011;2419;51.276;6.472;2023-07-28T12:47:48;0.97;;;0.97;;
4810;SDS011;2419;51.276;6.472;2023-07-28T12:50:24;1.00;;;0.90;;
4810;SDS011;2419;51.276;6.472;2023-07-28T12:52:52;2.10;;;1.13;;
4810;SDS011;2419;51.276;6.472;2023-07-28T12:55:23;0.87;;;0.87;;
4810;SDS011;2419;51.276;6.472;2023-07-28T12:57:55;2.30;;;1.27;;
4810;SDS011;2419;51.276;6.472;2023-07-28T13:00:24;2.30;;;1.10;;
4810;SDS011;2419;51.276;6.472;2023-07-28T13:02:55;0.93;;;0.93;;
4810;SDS011;2419;51.276;6.472;2023-07-28T13:05:24;1.37;;;1.20;;
4810;SDS011;2419;51.276;6.472;2023-07-28T13:07:52;1.10;;;1.00;;
4810;SDS011;2419;51.276;6.472;2023-07-28T13:10:23;0.90;;;0.90;;
4810;SDS011;2419;51.276;6.472;2023-07-28T13:12:55;1.20;;;1.10;;
4810;SDS011;2419;51.276;6.472;2023-07-28T13:15:23;1.10;;;1.00;;
4810;SDS011;2419;51.276;6.472;2023-07-28T13:17:52;3.90;;;1.50;;
4810;SDS011;2419;51.276;6.472;2023-07-28T13:20:20;1.40;;;1.30;;
4810;SDS011;2419;51.276;6.472;2023-07-28T13:22:48;1.10;;;1.00;;
4810;SDS011;2419;51.276;6.472;2023-07-28T13:25:16;1.90;;;1.20;;
4810;SDS011;2419;51.276;6.472;2023-07-28T13:27:44;2.27;;;1.20;;
4810;SDS011;2419;51.276;6.472;2023-07-28T13:30:13;1.13;;;1.03;;
4810;SDS011;2419;51.276;6.472;2023-07-28T13:32:41;1.20;;;1.10;;
4810;SDS011;2419;51.276;6.472;2023-07-28T13:35:09;2.00;;;1.33;;
4810;SDS011;2419;51.276;6.472;2023-07-28T13:37:37;1.30;;;1.20;;
4810;SDS011;2419;51.276;6.472;2023-07-28T13:40:06;1.80;;;1.60;;
4810;SDS011;2419;51.276;6.472;2023-07-28T13:42:38;4.10;;;1.63;;
4810;SDS011;2419;51.276;6.472;2023-07-28T13:45:06;1.50;;;1.40;;
4810;SDS011;2419;51.276;6.472;2023-07-28T13:47:37;1.97;;;1.20;;
4810;SDS011;2419;51.276;6.472;2023-07-28T13:50:05;1.53;;;1.40;;
4810;SDS011;2419;51.276;6.472;2023-07-28T13:52:34;1.30;;;1.20;;
4810;SDS011;2419;51.276;6.472;2023-07-28T13:55:02;1.33;;;1.23;;
4810;SDS011;2419;51.276;6.472;2023-07-28T13:57:34;1.80;;;1.67;;
4810;SDS011;2419;51.276;6.472;2023-07-28T14:00:03;1.33;;;1.23;;
4810;SDS011;2419;51.276;6.472;2023-07-28T14:02:36;1.53;;;1.43;;
4810;SDS011;2419;51.276;6.472;2023-07-28T14:05:05;1.40;;;1.30;;
4810;SDS011;2419;51.276;6.472;2023-07-28T14:07:34;1.27;;;1.17;;
4810;SDS011;2419;51.276;6.472;2023-07-28T14:10:03;1.27;;;1.17;;
4810;SDS011;2419;51.276;6.472;2023-07-28T14:12:33;1.57;;;1.10;;
4810;SDS011;2419;51.276;6.472;2023-07-28T14:15:01;1.30;;;1.20;;
4810;SDS011;2419;51.276;6.472;2023-07-28T14:17:29;1.20;;;1.10;;
4810;SDS011;2419;51.276;6.472;2023-07-28T14:19:59;1.40;;;1.30;;
4810;SDS011;2419;51.276;6.472;2023-07-28T14:22:27;1.97;;;1.30;;
4810;SDS011;2419;51.276;6.472;2023-07-28T14:24:55;2.13;;;1.40;;
4810;SDS011;2419;51.276;6.472;2023-07-28T14:27:23;1.27;;;1.20;;
4810;SDS011;2419;51.276;6.472;2023-07-28T14:29:51;1.10;;;1.00;;
4810;SDS011;2419;51.276;6.472;2023-07-28T14:32:19;1.50;;;1.40;;
4810;SDS011;2419;51.276;6.472;2023-07-28T14:34:47;1.00;;;1.00;;
4810;SDS011;2419;51.276;6.472;2023-07-28T14:37:17;1.13;;;1.03;;
4810;SDS011;2419;51.276;6.472;2023-07-28T14:39:45;1.53;;;1.43;;
4810;SDS011;2419;51.276;6.472;2023-07-28T14:42:13;1.10;;;1.00;;
4810;SDS011;2419;51.276;6.472;2023-07-28T14:44:41;1.40;;;1.30;;
4810;SDS011;2419;51.276;6.472;2023-07-28T14:47:08;1.20;;;1.10;;
4810;SDS011;2419;51.276;6.472;2023-07-28T14:49:37;1.60;;;1.50;;
4810;SDS011;2419;51.276;6.472;2023-07-28T14:52:05;1.83;;;1.73;;
4810;SDS011;2419;51.276;6.472;2023-07-28T14:54:35;1.77;;;1.30;;
4810;SDS011;2419;51.276;6.472;2023-07-28T14:57:03;1.87;;;1.30;;
4810;SDS011;2419;51.276;6.472;2023-07-28T14:59:42;1.57;;;1.40;;
4810;SDS011;2419;51.276;6.472;2023-07-28T15:02:10;1.83;;;1.40;;
4810;SDS011;2419;51.276;6.472;2023-07-28T15:04:39;1.33;;;1.23;;
4810;SDS011;2419;51.276;6.472;2023-07-28T15:07:08;1.83;;;1.70;;
4810;SDS011;2419;51.276;6.472;2023-07-28T15:09:37;1.73;;;1.63;;
4810;SDS011;2419;51.276;6.472;2023-07-28T15:12:06;2.23;;;2.00;;
4810;SDS011;2419;51.276;6.472;2023-07-28T15:14:34;1.33;;;1.23;;
4810;SDS011;2419;51.276;6.472;2023-07-28T15:17:02;2.30;;;1.40;;
4810;SDS011;2419;51.276;6.472;2023-07-28T15:19:30;2.23;;;1.70;;
4810;SDS011;2419;51.276;6.472;2023-07-28T15:21:58;1.60;;;1.50;;
4810;SDS011;2419;51.276;6.472;2023-07-28T15:24:26;3.73;;;1.43;;
4810;SDS011;2419;51.276;6.472;2023-07-28T15:26:56;1.30;;;1.20;;
4810;SDS011;2419;51.276;6.472;2023-07-28T15:29:24;1.63;;;1.50;;
4810;SDS011;2419;51.276;6.472;2023-07-28T15:31:52;1.47;;;1.37;;